Van Kinsbergen — PAKB — position and weather

sailwx.info

Track history (hours):
 
Tides and Currents Weather Stations Pressure Air Temp Water Temp Dewpoint Dewpoint Depression Visibility Wind Speed Wind Dir Waves Ship Positions

Van Kinsbergen

Last reported at 2015-Jan-25 03:33 UTC. Time now 2015-Jan-25 03:55 UTC.
Position N 54°22' E 010°09'.

Length 40 m; draft 3.1 m.

MMSI: 244736000.

Date/timePositionNaut miles runAvg speedWind from/ knotsBaromVisibWave heightAir tempDewpointWater temp
2015-Jan-25 03:33N 54°22' E 010°09'0 0.0
2015-Jan-25 02:33N 54°22' E 010°09'0 0.0
2015-Jan-25 01:33N 54°22' E 010°09'0 0.0
2015-Jan-25 00:33N 54°22' E 010°09'0 0.0
2015-Jan-24 23:33N 54°22' E 010°09'0 0.0
2015-Jan-24 22:33N 54°22' E 010°09'0 0.0
2015-Jan-24 21:33N 54°22' E 010°09'0 0.0
2015-Jan-24 20:33N 54°22' E 010°09'0 0.0
2015-Jan-24 19:33N 54°22' E 010°09'0 0.0
2015-Jan-24 18:33N 54°22' E 010°09'0 0.0
2015-Jan-24 17:33N 54°22' E 010°09'8 8.4
2015-Jan-24 16:33N 54°29' E 010°16'4 4.0
2015-Jan-24 15:33N 54°33' E 010°14'9 9.0
2015-Jan-24 14:33N 54°42' E 010°09'11 8.3
2015-Jan-24 13:16N 54°51' E 010°01'6 7.9
2015-Jan-24 12:33N 54°50' E 009°51'7 6.6
2015-Jan-24 11:33N 54°50' E 009°40'0 0.1
2015-Jan-24 10:33N 54°50' E 009°40'4 4.3
2015-Jan-24 09:33N 54°52' E 009°33'2 1.0
2015-Jan-24 07:33N 54°52' E 009°37'8 7.9
2015-Jan-24 06:33N 54°50' E 009°50'8 8.3
2015-Jan-24 05:33N 54°51' E 010°04'5 4.9
2015-Jan-24 04:33N 54°56' E 010°06'6 6.3
2015-Jan-24 03:33N 55°01' E 010°02'7 6.5
2015-Jan-24 02:32N 55°07' E 009°56'6 0.2
2015-Jan-23 00:11N 55°12' E 009°49'31 8.2
2015-Jan-22 20:24N 54°44' E 010°15'1010.3
2015-Jan-22 19:24N 54°35' E 010°21'7 8.6
2015-Jan-22 18:32N 54°28' E 010°16'7 7.3
2015-Jan-22 17:33N 54°22' E 010°09'2 2.5
2015-Jan-22 16:33N 54°22' E 010°04'7 6.7
2015-Jan-22 15:33N 54°21' E 009°53'6 6.3
2015-Jan-22 14:32N 54°19' E 009°43'23 7.8
2015-Jan-22 11:33N 54°01' E 009°18'8 7.9
2015-Jan-22 10:33N 53°54' E 009°10'1 1.4
2015-Jan-22 09:33N 53°53' E 009°08'6 5.9
2015-Jan-22 08:33N 53°51' E 008°59'8 8.3
2015-Jan-22 07:33N 53°51' E 008°45'7 7.3
2015-Jan-22 06:33N 53°57' E 008°37'7 7.2
2015-Jan-22 05:33N 53°59' E 008°26'8 8.3
2015-Jan-22 04:33N 53°59' E 008°11'9 9.2
2015-Jan-22 03:33N 53°57' E 007°56'12 8.9
2015-Jan-22 02:12N 53°55' E 007°36'9 9.4
2015-Jan-22 01:12N 53°53' E 007°21'5211.2
2015-Jan-21 20:32N 53°39' E 005°55'1414.2
2015-Jan-21 19:33N 53°35' E 005°33'1414.5
2015-Jan-21 18:33N 53°30' E 005°10'1714.7
2015-Jan-21 17:24N 53°23' E 004°44'27 9.5
2015-Jan-21 14:32N 52°56' E 004°40'4 4.0
2015-Jan-21 13:33N 52°59' E 004°45'  
2015-Jan-16 18:14N 52°58' E 004°47'1 2.0
2015-Jan-16 17:33N 52°58' E 004°45'2 2.1
2015-Jan-16 16:34N 52°59' E 004°47'2 1.8
2015-Jan-16 15:33N 52°58' E 004°47'7 6.4
2015-Jan-16 14:32N 53°03' E 004°54'5 5.5
2015-Jan-16 13:33N 53°03' E 005°03'7 7.0
2015-Jan-16 12:33N 53°04' E 005°14'1 0.6
2015-Jan-16 11:33N 53°03' E 005°13'7 7.4
2015-Jan-16 10:34N 53°04' E 005°01'5 5.4
2015-Jan-16 09:33N 53°02' E 004°52'6 6.4
2015-Jan-16 08:33N 52°58' E 004°44'2 2.2
2015-Jan-16 07:34N 52°59' E 004°47'1 0.9
2015-Jan-16 06:33N 52°59' E 004°48'2 1.8
2015-Jan-16 05:31N 52°58' E 004°47'0 0.0
2015-Jan-16 04:04N 52°58' E 004°47'0 0.0
2015-Jan-16 03:16N 52°58' E 004°47'0 0.0
2015-Jan-16 02:04N 52°58' E 004°47'0 0.0
2015-Jan-16 01:07N 52°58' E 004°47'0 0.0
2015-Jan-16 00:19N 52°58' E 004°47'0 0.0
2015-Jan-15 23:25N 52°58' E 004°47'0 0.0
2015-Jan-15 22:10N 52°58' E 004°47'0 0.0
2015-Jan-15 21:13N 52°58' E 004°47'0 0.0
2015-Jan-15 20:28N 52°58' E 004°47'0 0.0
2015-Jan-15 19:28N 52°58' E 004°47'0 0.0
2015-Jan-15 18:31N 52°58' E 004°47'8 8.8
2015-Jan-15 17:34N 53°04' E 004°56'5 5.2
2015-Jan-15 16:33N 53°02' E 005°04'7 7.2
2015-Jan-15 15:34N 53°02' E 004°52'5 5.3
2015-Jan-15 14:33N 52°58' E 004°47'1 1.2
2015-Jan-15 13:32N 52°58' E 004°45'2 1.8
2015-Jan-15 12:33N 52°59' E 004°48'0 0.5
2015-Jan-15 11:33N 52°60' E 004°48'2 2.4
2015-Jan-15 10:33N 52°58' E 004°44'2 1.5
2015-Jan-15 09:33N 52°58' E 004°47'1 0.9
2015-Jan-15 08:33N 52°58' E 004°46'1 0.9
2015-Jan-15 07:30N 52°58' E 004°47'0 0.0
2015-Jan-15 06:33N 52°58' E 004°47'0 0.0
2015-Jan-15 05:33N 52°58' E 004°47'0 0.0
2015-Jan-15 04:24N 52°58' E 004°47'  
Track history (hours):
 
Tides and Currents Weather Stations Pressure Air Temp Water Temp Dewpoint Dewpoint Depression Visibility Wind Speed Wind Dir Waves Ship Positions

Van Kinsbergen

Last reported at 2015-Jan-25 03:33 UTC. Time now 2015-Jan-25 03:55 UTC.
Position N 54°22' E 010°09'.

Length 40 m; draft 3.1 m.

MMSI: 244736000.

Date/timePositionNaut miles runAvg speedWind from/ knotsBaromVisibWave heightAir tempDewpointWater temp
2015-Jan-25 03:33N 54°22' E 010°09'0 0.0
2015-Jan-25 02:33N 54°22' E 010°09'0 0.0
2015-Jan-25 01:33N 54°22' E 010°09'0 0.0
2015-Jan-25 00:33N 54°22' E 010°09'0 0.0
2015-Jan-24 23:33N 54°22' E 010°09'0 0.0
2015-Jan-24 22:33N 54°22' E 010°09'0 0.0
2015-Jan-24 21:33N 54°22' E 010°09'0 0.0
2015-Jan-24 20:33N 54°22' E 010°09'0 0.0
2015-Jan-24 19:33N 54°22' E 010°09'0 0.0
2015-Jan-24 18:33N 54°22' E 010°09'0 0.0
2015-Jan-24 17:33N 54°22' E 010°09'8 8.4
2015-Jan-24 16:33N 54°29' E 010°16'4 4.0
2015-Jan-24 15:33N 54°33' E 010°14'9 9.0
2015-Jan-24 14:33N 54°42' E 010°09'11 8.3
2015-Jan-24 13:16N 54°51' E 010°01'6 7.9
2015-Jan-24 12:33N 54°50' E 009°51'7 6.6
2015-Jan-24 11:33N 54°50' E 009°40'0 0.1
2015-Jan-24 10:33N 54°50' E 009°40'4 4.3
2015-Jan-24 09:33N 54°52' E 009°33'2 1.0
2015-Jan-24 07:33N 54°52' E 009°37'8 7.9
2015-Jan-24 06:33N 54°50' E 009°50'8 8.3
2015-Jan-24 05:33N 54°51' E 010°04'5 4.9
2015-Jan-24 04:33N 54°56' E 010°06'6 6.3
2015-Jan-24 03:33N 55°01' E 010°02'7 6.5
2015-Jan-24 02:32N 55°07' E 009°56'6 0.2
2015-Jan-23 00:11N 55°12' E 009°49'31 8.2
2015-Jan-22 20:24N 54°44' E 010°15'1010.3
2015-Jan-22 19:24N 54°35' E 010°21'7 8.6
2015-Jan-22 18:32N 54°28' E 010°16'7 7.3
2015-Jan-22 17:33N 54°22' E 010°09'2 2.5
2015-Jan-22 16:33N 54°22' E 010°04'7 6.7
2015-Jan-22 15:33N 54°21' E 009°53'6 6.3
2015-Jan-22 14:32N 54°19' E 009°43'23 7.8
2015-Jan-22 11:33N 54°01' E 009°18'8 7.9
2015-Jan-22 10:33N 53°54' E 009°10'1 1.4
2015-Jan-22 09:33N 53°53' E 009°08'6 5.9
2015-Jan-22 08:33N 53°51' E 008°59'8 8.3
2015-Jan-22 07:33N 53°51' E 008°45'7 7.3
2015-Jan-22 06:33N 53°57' E 008°37'7 7.2
2015-Jan-22 05:33N 53°59' E 008°26'8 8.3
2015-Jan-22 04:33N 53°59' E 008°11'9 9.2
2015-Jan-22 03:33N 53°57' E 007°56'12 8.9
2015-Jan-22 02:12N 53°55' E 007°36'9 9.4
2015-Jan-22 01:12N 53°53' E 007°21'5211.2
2015-Jan-21 20:32N 53°39' E 005°55'1414.2
2015-Jan-21 19:33N 53°35' E 005°33'1414.5
2015-Jan-21 18:33N 53°30' E 005°10'1714.7
2015-Jan-21 17:24N 53°23' E 004°44'27 9.5
2015-Jan-21 14:32N 52°56' E 004°40'4 4.0
2015-Jan-21 13:33N 52°59' E 004°45'  
2015-Jan-16 18:14N 52°58' E 004°47'1 2.0
2015-Jan-16 17:33N 52°58' E 004°45'2 2.1
2015-Jan-16 16:34N 52°59' E 004°47'2 1.8
2015-Jan-16 15:33N 52°58' E 004°47'7 6.4
2015-Jan-16 14:32N 53°03' E 004°54'5 5.5
2015-Jan-16 13:33N 53°03' E 005°03'7 7.0
2015-Jan-16 12:33N 53°04' E 005°14'1 0.6
2015-Jan-16 11:33N 53°03' E 005°13'7 7.4
2015-Jan-16 10:34N 53°04' E 005°01'5 5.4
2015-Jan-16 09:33N 53°02' E 004°52'6 6.4
2015-Jan-16 08:33N 52°58' E 004°44'2 2.2
2015-Jan-16 07:34N 52°59' E 004°47'1 0.9
2015-Jan-16 06:33N 52°59' E 004°48'2 1.8
2015-Jan-16 05:31N 52°58' E 004°47'0 0.0
2015-Jan-16 04:04N 52°58' E 004°47'0 0.0
2015-Jan-16 03:16N 52°58' E 004°47'0 0.0
2015-Jan-16 02:04N 52°58' E 004°47'0 0.0
2015-Jan-16 01:07N 52°58' E 004°47'0 0.0
2015-Jan-16 00:19N 52°58' E 004°47'0 0.0
2015-Jan-15 23:25N 52°58' E 004°47'0 0.0
2015-Jan-15 22:10N 52°58' E 004°47'0 0.0
2015-Jan-15 21:13N 52°58' E 004°47'0 0.0
2015-Jan-15 20:28N 52°58' E 004°47'0 0.0
2015-Jan-15 19:28N 52°58' E 004°47'0 0.0
2015-Jan-15 18:31N 52°58' E 004°47'8 8.8
2015-Jan-15 17:34N 53°04' E 004°56'5 5.2
2015-Jan-15 16:33N 53°02' E 005°04'7 7.2
2015-Jan-15 15:34N 53°02' E 004°52'5 5.3
2015-Jan-15 14:33N 52°58' E 004°47'1 1.2
2015-Jan-15 13:32N 52°58' E 004°45'2 1.8
2015-Jan-15 12:33N 52°59' E 004°48'0 0.5
2015-Jan-15 11:33N 52°60' E 004°48'2 2.4
2015-Jan-15 10:33N 52°58' E 004°44'2 1.5
2015-Jan-15 09:33N 52°58' E 004°47'1 0.9
2015-Jan-15 08:33N 52°58' E 004°46'1 0.9
2015-Jan-15 07:30N 52°58' E 004°47'0 0.0
2015-Jan-15 06:33N 52°58' E 004°47'0 0.0
2015-Jan-15 05:33N 52°58' E 004°47'0 0.0
2015-Jan-15 04:24N 52°58' E 004°47'  

Dump ship's entire track history